CheckWX is a tool to help pilots better visualize weather data.  It is not intended as a substitute for an official pre-flight weather briefing.

00:59:53 UTC

KDEH METAR
Decorah Municipal Airport
Decorah, Iowa, USA
Current

25 mins ago

KDEH 260035Z AUTO 00000KT 6SM +RA FEW027 BKN050 BKN080 20/20 A2985 RMK AO2
Observed
May-26 @ 00:35 UTC
Visibility
Flight Rules
VFR
Conditions
Heavy Rain
Cloud Levels
  • Few at 2,700' AGL
  • Broken at 5,000' AGL
  • Broken at 8,000' AGL
Temperature
20°C / 68°F
Dewpoint
20°C / 68°F
Humidity
100%
Altimeter
29.85" Hg
Pressure
1010.82 hPa
Previous

45 mins ago

KDEH 260015Z AUTO VRB04G12KT 2 1/2SM -RA FEW003 SCT028 BKN049 20/20 A2986 RMK AO2
Observed
May-26 @ 00:15 UTC
Wind
  • Variable at 4 KTS
  • Gusting to 12 KTS
Visibility
Flight Rules
IFR
Conditions
Light Rain
Cloud Levels
  • Few at 300' AGL
  • Scattered at 2,800' AGL
  • Broken at 4,900' AGL
Temperature
20°C / 68°F
Dewpoint
20°C / 68°F
Humidity
100%
Altimeter
29.86" Hg
Pressure
1011.22 hPa
Previous

1 hour ago

KDEH 252355Z AUTO 24007KT 9SM BKN048 BKN055 OVC065 26/20 A2985 RMK AO2
Observed
May-25 @ 23:55 UTC
Wind
  • 240° at 7 KTS
Visibility
Flight Rules
VFR
Cloud Levels
  • Broken at 4,800' AGL
  • Broken at 5,500' AGL
  • Overcast at 6,500' AGL
Temperature
26°C / 79°F
Dewpoint
20°C / 68°F
Humidity
70%
Altimeter
29.85" Hg
Pressure
1010.82 hPa